sensor_id;sensor_type;location;lat;lon;timestamp;temperature;humidity
79010;DHT22;73031;44.726;37.760;2024-03-08T06:52:16;14.52;53.72
79010;DHT22;73031;44.726;37.760;2024-03-08T06:53:18;13.37;52.83
79010;DHT22;73031;44.726;37.760;2024-03-08T06:54:20;13.44;50.79
79010;DHT22;73031;44.726;37.760;2024-03-08T06:55:21;13.61;50.72
79010;DHT22;73031;44.726;37.760;2024-03-08T06:56:22;13.81;49.51
79010;DHT22;73031;44.726;37.760;2024-03-08T06:57:24;13.20;51.44
79010;DHT22;73031;44.726;37.760;2024-03-08T06:58:25;14.17;49.68
79010;DHT22;73031;44.726;37.760;2024-03-08T06:59:26;14.12;48.19
79010;DHT22;73031;44.726;37.760;2024-03-08T07:00:28;13.98;49.17
79010;DHT22;73031;44.726;37.760;2024-03-08T07:01:31;15.22;46.88
79010;DHT22;73031;44.726;37.760;2024-03-08T07:02:33;15.77;45.33
79010;DHT22;73031;44.726;37.760;2024-03-08T07:03:35;15.33;46.61
79010;DHT22;73031;44.726;37.760;2024-03-08T07:04:36;15.19;46.69
79010;DHT22;73031;44.726;37.760;2024-03-08T07:05:39;14.93;45.62
79010;DHT22;73031;44.726;37.760;2024-03-08T07:06:41;14.62;46.86
79010;DHT22;73031;44.726;37.760;2024-03-08T07:07:42;14.92;47.00
79010;DHT22;73031;44.726;37.760;2024-03-08T07:08:44;15.59;44.33
79010;DHT22;73031;44.726;37.760;2024-03-08T07:09:47;15.57;45.21
79010;DHT22;73031;44.726;37.760;2024-03-08T07:10:50;15.73;45.46
79010;DHT22;73031;44.726;37.760;2024-03-08T07:11:51;15.78;44.18
79010;DHT22;73031;44.726;37.760;2024-03-08T07:12:55;15.57;45.22
79010;DHT22;73031;44.726;37.760;2024-03-08T07:13:57;15.55;46.01
79010;DHT22;73031;44.726;37.760;2024-03-08T07:14:59;15.93;46.42
79010;DHT22;73031;44.726;37.760;2024-03-08T07:16:00;15.36;46.60
79010;DHT22;73031;44.726;37.760;2024-03-08T07:17:02;15.23;48.33
79010;DHT22;73031;44.726;37.760;2024-03-08T07:18:05;15.44;47.74
79010;DHT22;73031;44.726;37.760;2024-03-08T07:19:07;15.51;44.82
79010;DHT22;73031;44.726;37.760;2024-03-08T07:20:09;14.86;44.98
79010;DHT22;73031;44.726;37.760;2024-03-08T07:21:13;14.74;46.08
79010;DHT22;73031;44.726;37.760;2024-03-08T07:22:14;14.81;47.54
79010;DHT22;73031;44.726;37.760;2024-03-08T07:23:15;15.17;45.28
79010;DHT22;73031;44.726;37.760;2024-03-08T07:24:37;14.74;46.18
79010;DHT22;73031;44.726;37.760;2024-03-08T07:25:38;14.69;46.31
79010;DHT22;73031;44.726;37.760;2024-03-08T07:26:40;14.85;45.61
79010;DHT22;73031;44.726;37.760;2024-03-08T07:27:41;14.95;44.63
79010;DHT22;73031;44.726;37.760;2024-03-08T07:28:42;15.48;44.26
79010;DHT22;73031;44.726;37.760;2024-03-08T07:29:44;15.02;44.18
79010;DHT22;73031;44.726;37.760;2024-03-08T07:30:46;15.04;45.33
79010;DHT22;73031;44.726;37.760;2024-03-08T07:31:54;15.55;44.28
79010;DHT22;73031;44.726;37.760;2024-03-08T07:33:02;15.44;43.78
79010;DHT22;73031;44.726;37.760;2024-03-08T07:34:03;15.37;44.30
79010;DHT22;73031;44.726;37.760;2024-03-08T07:35:06;15.16;44.37
79010;DHT22;73031;44.726;37.760;2024-03-08T07:36:08;15.28;44.29
79010;DHT22;73031;44.726;37.760;2024-03-08T07:37:09;15.43;43.69
79010;DHT22;73031;44.726;37.760;2024-03-08T07:38:12;15.72;45.35
79010;DHT22;73031;44.726;37.760;2024-03-08T07:39:13;15.89;44.72
79010;DHT22;73031;44.726;37.760;2024-03-08T07:40:14;16.61;43.18
79010;DHT22;73031;44.726;37.760;2024-03-08T07:41:17;16.33;42.18
79010;DHT22;73031;44.726;37.760;2024-03-08T07:42:18;16.54;43.80
79010;DHT22;73031;44.726;37.760;2024-03-08T07:43:20;16.57;42.36
79010;DHT22;73031;44.726;37.760;2024-03-08T07:44:23;16.85;42.48
79010;DHT22;73031;44.726;37.760;2024-03-08T07:45:24;17.05;42.61
79010;DHT22;73031;44.726;37.760;2024-03-08T07:46:26;17.61;39.23
79010;DHT22;73031;44.726;37.760;2024-03-08T07:47:27;17.20;41.18
79010;DHT22;73031;44.726;37.760;2024-03-08T07:48:31;16.98;41.53
79010;DHT22;73031;44.726;37.760;2024-03-08T07:49:32;16.75;42.76
79010;DHT22;73031;44.726;37.760;2024-03-08T07:50:39;16.89;43.23
79010;DHT22;73031;44.726;37.760;2024-03-08T07:51:40;16.85;40.36
79010;DHT22;73031;44.726;37.760;2024-03-08T07:52:42;16.82;41.57
79010;DHT22;73031;44.726;37.760;2024-03-08T07:53:44;16.85;39.79
79010;DHT22;73031;44.726;37.760;2024-03-08T07:54:46;16.95;40.21
79010;DHT22;73031;44.726;37.760;2024-03-08T07:55:47;17.20;41.20
79010;DHT22;73031;44.726;37.760;2024-03-08T07:56:49;17.40;40.79
79010;DHT22;73031;44.726;37.760;2024-03-08T07:57:52;17.64;38.46
79010;DHT22;73031;44.726;37.760;2024-03-08T07:58:53;17.62;39.52
79010;DHT22;73031;44.726;37.760;2024-03-08T07:59:55;17.65;38.52
79010;DHT22;73031;44.726;37.760;2024-03-08T08:00:56;17.45;40.61
79010;DHT22;73031;44.726;37.760;2024-03-08T08:01:57;18.03;39.43
79010;DHT22;73031;44.726;37.760;2024-03-08T08:03:00;18.09;38.37
79010;DHT22;73031;44.726;37.760;2024-03-08T08:04:02;17.95;37.69
79010;DHT22;73031;44.726;37.760;2024-03-08T08:05:04;18.22;37.23
79010;DHT22;73031;44.726;37.760;2024-03-08T08:06:05;18.71;40.42
79010;DHT22;73031;44.726;37.760;2024-03-08T08:07:07;19.33;37.06
79010;DHT22;73031;44.726;37.760;2024-03-08T08:08:09;18.85;35.29
79010;DHT22;73031;44.726;37.760;2024-03-08T08:09:11;18.18;36.41
79010;DHT22;73031;44.726;37.760;2024-03-08T08:10:16;18.34;36.69
79010;DHT22;73031;44.726;37.760;2024-03-08T08:11:22;18.88;37.13
79010;DHT22;73031;44.726;37.760;2024-03-08T08:12:24;19.28;36.46
79010;DHT22;73031;44.726;37.760;2024-03-08T08:13:25;19.28;35.27
79010;DHT22;73031;44.726;37.760;2024-03-08T08:14:28;19.40;34.04
79010;DHT22;73031;44.726;37.760;2024-03-08T08:15:30;18.99;34.24
79010;DHT22;73031;44.726;37.760;2024-03-08T08:16:31;18.48;35.87
79010;DHT22;73031;44.726;37.760;2024-03-08T08:17:33;18.37;36.55
79010;DHT22;73031;44.726;37.760;2024-03-08T08:18:36;18.78;37.37
79010;DHT22;73031;44.726;37.760;2024-03-08T08:19:37;19.30;36.61
79010;DHT22;73031;44.726;37.760;2024-03-08T08:20:39;19.64;35.64
79010;DHT22;73031;44.726;37.760;2024-03-08T08:21:41;19.78;34.82
79010;DHT22;73031;44.726;37.760;2024-03-08T08:22:42;19.93;34.32
79010;DHT22;73031;44.726;37.760;2024-03-08T08:23:44;19.98;34.77
79010;DHT22;73031;44.726;37.760;2024-03-08T08:24:45;20.29;34.96
79010;DHT22;73031;44.726;37.760;2024-03-08T08:25:47;20.45;34.07
79010;DHT22;73031;44.726;37.760;2024-03-08T08:26:51;20.60;34.05
79010;DHT22;73031;44.726;37.760;2024-03-08T08:27:53;20.85;32.95
79010;DHT22;73031;44.726;37.760;2024-03-08T08:28:55;20.91;32.33
79010;DHT22;73031;44.726;37.760;2024-03-08T08:29:56;20.86;32.91
79010;DHT22;73031;44.726;37.760;2024-03-08T08:30:58;20.82;31.73
79010;DHT22;73031;44.726;37.760;2024-03-08T08:32:00;20.47;32.11
79010;DHT22;73031;44.726;37.760;2024-03-08T08:33:02;20.57;33.07
79010;DHT22;73031;44.726;37.760;2024-03-08T08:34:03;21.02;33.83
79010;DHT22;73031;44.726;37.760;2024-03-08T08:35:08;21.41;33.11
79010;DHT22;73031;44.726;37.760;2024-03-08T08:36:10;21.65;32.13
79010;DHT22;73031;44.726;37.760;2024-03-08T08:37:12;21.49;33.27
79010;DHT22;73031;44.726;37.760;2024-03-08T08:38:13;21.07;31.91
79010;DHT22;73031;44.726;37.760;2024-03-08T08:39:14;20.57;32.69
79010;DHT22;73031;44.726;37.760;2024-03-08T08:40:18;20.77;32.55
79010;DHT22;73031;44.726;37.760;2024-03-08T08:41:20;20.94;32.79
79010;DHT22;73031;44.726;37.760;2024-03-08T08:42:22;21.06;31.76
79010;DHT22;73031;44.726;37.760;2024-03-08T08:43:24;20.50;31.88
79010;DHT22;73031;44.726;37.760;2024-03-08T08:44:26;20.40;33.78
79010;DHT22;73031;44.726;37.760;2024-03-08T08:45:28;20.64;32.84
79010;DHT22;73031;44.726;37.760;2024-03-08T08:46:29;20.74;32.16
79010;DHT22;73031;44.726;37.760;2024-03-08T08:47:31;20.77;32.47
79010;DHT22;73031;44.726;37.760;2024-03-08T08:48:32;21.22;33.42
79010;DHT22;73031;44.726;37.760;2024-03-08T08:49:33;21.44;31.81
79010;DHT22;73031;44.726;37.760;2024-03-08T08:50:38;21.49;32.30
79010;DHT22;73031;44.726;37.760;2024-03-08T08:51:40;21.78;31.15
79010;DHT22;73031;44.726;37.760;2024-03-08T08:52:42;21.75;31.21
79010;DHT22;73031;44.726;37.760;2024-03-08T08:53:46;21.39;30.78
79010;DHT22;73031;44.726;37.760;2024-03-08T08:54:48;21.27;32.86
79010;DHT22;73031;44.726;37.760;2024-03-08T08:55:50;21.33;31.36
79010;DHT22;73031;44.726;37.760;2024-03-08T08:56:54;21.47;31.42
79010;DHT22;73031;44.726;37.760;2024-03-08T08:57:55;21.57;31.74
79010;DHT22;73031;44.726;37.760;2024-03-08T08:58:57;21.67;31.02
79010;DHT22;73031;44.726;37.760;2024-03-08T08:59:59;21.53;30.78
79010;DHT22;73031;44.726;37.760;2024-03-08T09:01:01;20.91;31.04
79010;DHT22;73031;44.726;37.760;2024-03-08T09:02:03;20.85;30.99
79010;DHT22;73031;44.726;37.760;2024-03-08T09:03:07;20.43;31.87
79010;DHT22;73031;44.726;37.760;2024-03-08T09:04:08;20.58;32.37
79010;DHT22;73031;44.726;37.760;2024-03-08T09:05:10;20.71;31.21
79010;DHT22;73031;44.726;37.760;2024-03-08T09:06:12;20.10;32.66
79010;DHT22;73031;44.726;37.760;2024-03-08T09:07:14;20.13;34.04
79010;DHT22;73031;44.726;37.760;2024-03-08T09:08:17;20.51;32.40
79010;DHT22;73031;44.726;37.760;2024-03-08T09:09:18;20.48;31.86
79010;DHT22;73031;44.726;37.760;2024-03-08T09:10:19;20.63;31.53
79010;DHT22;73031;44.726;37.760;2024-03-08T09:11:22;20.06;32.44
79010;DHT22;73031;44.726;37.760;2024-03-08T09:12:24;19.81;32.66
79010;DHT22;73031;44.726;37.760;2024-03-08T09:13:25;19.92;33.02
79010;DHT22;73031;44.726;37.760;2024-03-08T09:14:27;19.96;33.09
79010;DHT22;73031;44.726;37.760;2024-03-08T09:15:28;19.86;32.90
79010;DHT22;73031;44.726;37.760;2024-03-08T09:16:30;19.86;32.90
79010;DHT22;73031;44.726;37.760;2024-03-08T09:17:32;19.93;33.39
79010;DHT22;73031;44.726;37.760;2024-03-08T09:18:34;19.96;33.38
79010;DHT22;73031;44.726;37.760;2024-03-08T09:19:36;20.19;33.20
79010;DHT22;73031;44.726;37.760;2024-03-08T09:20:37;20.27;33.80
79010;DHT22;73031;44.726;37.760;2024-03-08T09:21:39;20.52;33.36
79010;DHT22;73031;44.726;37.760;2024-03-08T09:22:44;20.54;32.76
79010;DHT22;73031;44.726;37.760;2024-03-08T09:23:45;20.50;33.09
79010;DHT22;73031;44.726;37.760;2024-03-08T09:24:47;20.27;33.79
79010;DHT22;73031;44.726;37.760;2024-03-08T09:25:49;20.02;33.21
79010;DHT22;73031;44.726;37.760;2024-03-08T09:26:50;19.78;33.77
79010;DHT22;73031;44.726;37.760;2024-03-08T09:27:53;19.75;33.72
79010;DHT22;73031;44.726;37.760;2024-03-08T09:28:55;19.54;34.09
79010;DHT22;73031;44.726;37.760;2024-03-08T09:29:56;19.50;34.43
79010;DHT22;73031;44.726;37.760;2024-03-08T09:30:58;19.69;34.34
79010;DHT22;73031;44.726;37.760;2024-03-08T09:31:59;19.95;34.59
79010;DHT22;73031;44.726;37.760;2024-03-08T09:33:01;20.10;33.68
79010;DHT22;73031;44.726;37.760;2024-03-08T09:34:03;20.13;33.67
79010;DHT22;73031;44.726;37.760;2024-03-08T09:35:05;20.29;34.68
79010;DHT22;73031;44.726;37.760;2024-03-08T09:36:08;20.41;33.96
79010;DHT22;73031;44.726;37.760;2024-03-08T09:37:10;20.48;33.24
79010;DHT22;73031;44.726;37.760;2024-03-08T09:38:11;20.45;33.99
79010;DHT22;73031;44.726;37.760;2024-03-08T09:39:14;20.48;32.81
79010;DHT22;73031;44.726;37.760;2024-03-08T09:40:17;20.55;32.27
79010;DHT22;73031;44.726;37.760;2024-03-08T09:41:20;20.54;32.34
79010;DHT22;73031;44.726;37.760;2024-03-08T09:42:22;20.44;32.62
79010;DHT22;73031;44.726;37.760;2024-03-08T09:43:23;20.32;32.43
79010;DHT22;73031;44.726;37.760;2024-03-08T09:44:25;20.20;33.96
79010;DHT22;73031;44.726;37.760;2024-03-08T09:45:26;20.33;34.16
79010;DHT22;73031;44.726;37.760;2024-03-08T09:46:30;20.52;34.03
79010;DHT22;73031;44.726;37.760;2024-03-08T09:47:32;20.78;33.84
79010;DHT22;73031;44.726;37.760;2024-03-08T09:48:35;20.78;32.46
79010;DHT22;73031;44.726;37.760;2024-03-08T09:49:37;20.67;33.46
79010;DHT22;73031;44.726;37.760;2024-03-08T09:50:42;20.68;33.12
79010;DHT22;73031;44.726;37.760;2024-03-08T09:51:43;20.55;33.13
79010;DHT22;73031;44.726;37.760;2024-03-08T09:52:47;20.37;34.03
79010;DHT22;73031;44.726;37.760;2024-03-08T09:53:49;20.37;33.57
79010;DHT22;73031;44.726;37.760;2024-03-08T09:54:50;20.41;34.03
79010;DHT22;73031;44.726;37.760;2024-03-08T09:55:51;19.99;32.90
79010;DHT22;73031;44.726;37.760;2024-03-08T09:56:53;19.69;33.70
79010;DHT22;73031;44.726;37.760;2024-03-08T09:57:54;19.53;33.96
79010;DHT22;73031;44.726;37.760;2024-03-08T09:59:14;19.33;33.84
79010;DHT22;73031;44.726;37.760;2024-03-08T10:00:34;19.07;35.04
79010;DHT22;73031;44.726;37.760;2024-03-08T10:01:35;18.99;35.24
79010;DHT22;73031;44.726;37.760;2024-03-08T10:02:37;18.91;36.08
79010;DHT22;73031;44.726;37.760;2024-03-08T10:03:39;19.15;36.05
79010;DHT22;73031;44.726;37.760;2024-03-08T10:04:41;19.13;36.21
79010;DHT22;73031;44.726;37.760;2024-03-08T10:05:47;19.19;36.12
79010;DHT22;73031;44.726;37.760;2024-03-08T10:06:50;19.17;35.62
79010;DHT22;73031;44.726;37.760;2024-03-08T10:07:53;19.17;35.12
79010;DHT22;73031;44.726;37.760;2024-03-08T10:08:55;19.35;35.71
79010;DHT22;73031;44.726;37.760;2024-03-08T10:09:57;19.58;34.82
79010;DHT22;73031;44.726;37.760;2024-03-08T10:10:59;19.41;35.20
79010;DHT22;73031;44.726;37.760;2024-03-08T10:12:01;19.72;34.34
79010;DHT22;73031;44.726;37.760;2024-03-08T10:13:09;19.61;34.15
79010;DHT22;73031;44.726;37.760;2024-03-08T10:14:13;19.15;34.53
79010;DHT22;73031;44.726;37.760;2024-03-08T10:15:16;19.20;35.20
79010;DHT22;73031;44.726;37.760;2024-03-08T10:16:19;19.15;34.82
79010;DHT22;73031;44.726;37.760;2024-03-08T10:17:21;19.06;35.42
79010;DHT22;73031;44.726;37.760;2024-03-08T10:18:23;19.38;35.07
79010;DHT22;73031;44.726;37.760;2024-03-08T10:19:29;19.57;34.64
79010;DHT22;73031;44.726;37.760;2024-03-08T10:20:32;19.37;35.80
79010;DHT22;73031;44.726;37.760;2024-03-08T10:21:48;19.17;34.59
79010;DHT22;73031;44.726;37.760;2024-03-08T10:22:51;18.96;34.92
79010;DHT22;73031;44.726;37.760;2024-03-08T10:24:06;18.43;35.40
79010;DHT22;73031;44.726;37.760;2024-03-08T10:25:11;18.36;35.92
79010;DHT22;73031;44.726;37.760;2024-03-08T10:26:14;18.14;36.14
79010;DHT22;73031;44.726;37.760;2024-03-08T10:27:19;18.44;36.26
79010;DHT22;73031;44.726;37.760;2024-03-08T10:28:25;18.67;36.57
79010;DHT22;73031;44.726;37.760;2024-03-08T10:29:33;18.64;36.16
79010;DHT22;73031;44.726;37.760;2024-03-08T10:30:35;18.45;35.52
79010;DHT22;73031;44.726;37.760;2024-03-08T10:31:40;17.74;36.55
79010;DHT22;73031;44.726;37.760;2024-03-08T10:32:43;17.58;37.98
79010;DHT22;73031;44.726;37.760;2024-03-08T10:33:47;17.47;37.77
79010;DHT22;73031;44.726;37.760;2024-03-08T10:34:48;17.45;37.05
79010;DHT22;73031;44.726;37.760;2024-03-08T10:35:54;17.13;38.00
79010;DHT22;73031;44.726;37.760;2024-03-08T10:37:04;16.99;38.08
79010;DHT22;73031;44.726;37.760;2024-03-08T10:38:10;16.98;38.13
79010;DHT22;73031;44.726;37.760;2024-03-08T10:39:23;16.83;38.43
79010;DHT22;73031;44.726;37.760;2024-03-08T10:40:27;16.79;39.16
79010;DHT22;73031;44.726;37.760;2024-03-08T10:41:31;16.68;39.65
79010;DHT22;73031;44.726;37.760;2024-03-08T10:42:34;16.72;39.84
79010;DHT22;73031;44.726;37.760;2024-03-08T10:44:25;16.89;39.52
79010;DHT22;73031;44.726;37.760;2024-03-08T10:45:11;16.89;39.43
79010;DHT22;73031;44.726;37.760;2024-03-08T10:48:31;16.17;40.57
79010;DHT22;73031;44.726;37.760;2024-03-08T10:49:38;15.90;40.19
79010;DHT22;73031;44.726;37.760;2024-03-08T10:50:40;15.53;40.20
79010;DHT22;73031;44.726;37.760;2024-03-08T10:51:43;14.93;41.76
79010;DHT22;73031;44.726;37.760;2024-03-08T10:52:45;14.69;42.50
79010;DHT22;73031;44.726;37.760;2024-03-08T10:53:50;14.49;43.27
79010;DHT22;73031;44.726;37.760;2024-03-08T10:54:54;14.30;43.42
79010;DHT22;73031;44.726;37.760;2024-03-08T10:55:58;14.16;44.46
79010;DHT22;73031;44.726;37.760;2024-03-08T10:57:03;14.09;44.05
79010;DHT22;73031;44.726;37.760;2024-03-08T10:58:07;14.10;44.93
79010;DHT22;73031;44.726;37.760;2024-03-08T10:59:09;14.08;44.49
79010;DHT22;73031;44.726;37.760;2024-03-08T11:00:13;14.09;45.28
79010;DHT22;73031;44.726;37.760;2024-03-08T11:01:15;14.00;44.74
79010;DHT22;73031;44.726;37.760;2024-03-08T11:02:19;13.76;44.10
79010;DHT22;73031;44.726;37.760;2024-03-08T11:03:48;13.41;45.75
79010;DHT22;73031;44.726;37.760;2024-03-08T11:04:52;13.36;46.30
79010;DHT22;73031;44.726;37.760;2024-03-08T11:05:55;13.46;45.74
79010;DHT22;73031;44.726;37.760;2024-03-08T11:07:01;13.24;46.52
79010;DHT22;73031;44.726;37.760;2024-03-08T11:08:20;13.37;47.27
79010;DHT22;73031;44.726;37.760;2024-03-08T11:09:36;13.58;47.02
79010;DHT22;73031;44.726;37.760;2024-03-08T11:10:47;13.41;46.72
79010;DHT22;73031;44.726;37.760;2024-03-08T11:11:52;13.50;48.65
79010;DHT22;73031;44.726;37.760;2024-03-08T11:13:39;13.41;46.16
79010;DHT22;73031;44.726;37.760;2024-03-08T11:14:50;13.26;46.63
79010;DHT22;73031;44.726;37.760;2024-03-08T11:15:51;13.27;46.89
79010;DHT22;73031;44.726;37.760;2024-03-08T11:16:53;13.28;47.06
79010;DHT22;73031;44.726;37.760;2024-03-08T11:17:59;13.26;46.69
79010;DHT22;73031;44.726;37.760;2024-03-08T11:19:06;12.97;46.41
79010;DHT22;73031;44.726;37.760;2024-03-08T11:20:24;12.72;47.44
79010;DHT22;73031;44.726;37.760;2024-03-08T11:21:27;12.68;47.65
79010;DHT22;73031;44.726;37.760;2024-03-08T11:22:32;12.72;47.69
79010;DHT22;73031;44.726;37.760;2024-03-08T11:23:34;12.85;48.24
79010;DHT22;73031;44.726;37.760;2024-03-08T11:24:37;13.04;47.82
79010;DHT22;73031;44.726;37.760;2024-03-08T11:25:44;13.14;48.22
79010;DHT22;73031;44.726;37.760;2024-03-08T11:26:47;13.26;48.38
79010;DHT22;73031;44.726;37.760;2024-03-08T11:28:17;13.27;47.56
79010;DHT22;73031;44.726;37.760;2024-03-08T11:30:28;13.16;46.71
79010;DHT22;73031;44.726;37.760;2024-03-08T11:31:35;13.09;47.41
79010;DHT22;73031;44.726;37.760;2024-03-08T11:32:37;13.10;48.55
79010;DHT22;73031;44.726;37.760;2024-03-08T11:33:40;13.19;48.39
79010;DHT22;73031;44.726;37.760;2024-03-08T11:34:47;13.19;47.41
79010;DHT22;73031;44.726;37.760;2024-03-08T11:35:50;13.17;47.23
79010;DHT22;73031;44.726;37.760;2024-03-08T11:36:53;13.17;47.98
79010;DHT22;73031;44.726;37.760;2024-03-08T11:38:00;13.11;48.52
79010;DHT22;73031;44.726;37.760;2024-03-08T11:39:02;13.16;48.24
79010;DHT22;73031;44.726;37.760;2024-03-08T11:40:14;13.07;48.09
79010;DHT22;73031;44.726;37.760;2024-03-08T11:41:22;13.07;48.20
79010;DHT22;73031;44.726;37.760;2024-03-08T11:42:25;13.03;49.79
79010;DHT22;73031;44.726;37.760;2024-03-08T11:43:29;13.04;47.75
79010;DHT22;73031;44.726;37.760;2024-03-08T11:44:32;13.02;47.89
79010;DHT22;73031;44.726;37.760;2024-03-08T11:45:36;13.09;47.57
79010;DHT22;73031;44.726;37.760;2024-03-08T11:46:37;13.14;48.37
79010;DHT22;73031;44.726;37.760;2024-03-08T11:47:44;13.16;48.22
79010;DHT22;73031;44.726;37.760;2024-03-08T11:48:47;13.16;47.08
79010;DHT22;73031;44.726;37.760;2024-03-08T11:49:48;13.00;46.92
79010;DHT22;73031;44.726;37.760;2024-03-08T11:50:59;12.75;47.60
79010;DHT22;73031;44.726;37.760;2024-03-08T11:52:02;12.64;47.56
79010;DHT22;73031;44.726;37.760;2024-03-08T11:53:04;12.44;47.80
79010;DHT22;73031;44.726;37.760;2024-03-08T11:54:10;12.20;48.26
79010;DHT22;73031;44.726;37.760;2024-03-08T11:55:13;12.13;48.62
79010;DHT22;73031;44.726;37.760;2024-03-08T11:56:14;11.97;49.47
79010;DHT22;73031;44.726;37.760;2024-03-08T11:57:19;11.78;50.05
79010;DHT22;73031;44.726;37.760;2024-03-08T11:58:20;11.65;49.95
79010;DHT22;73031;44.726;37.760;2024-03-08T11:59:22;11.61;49.92
79010;DHT22;73031;44.726;37.760;2024-03-08T12:00:23;11.61;50.40
79010;DHT22;73031;44.726;37.760;2024-03-08T12:01:27;11.52;50.62
79010;DHT22;73031;44.726;37.760;2024-03-08T12:02:28;11.51;50.90
79010;DHT22;73031;44.726;37.760;2024-03-08T12:03:31;11.51;50.76
79010;DHT22;73031;44.726;37.760;2024-03-08T12:04:35;11.30;50.82
79010;DHT22;73031;44.726;37.760;2024-03-08T12:05:37;11.13;51.28
79010;DHT22;73031;44.726;37.760;2024-03-08T12:06:40;11.16;51.83
79010;DHT22;73031;44.726;37.760;2024-03-08T12:07:42;11.19;51.77
79010;DHT22;73031;44.726;37.760;2024-03-08T12:08:46;11.10;51.63
79010;DHT22;73031;44.726;37.760;2024-03-08T12:10:18;11.07;51.90
79010;DHT22;73031;44.726;37.760;2024-03-08T12:11:20;11.23;52.43
79010;DHT22;73031;44.726;37.760;2024-03-08T12:12:24;11.14;51.99
79010;DHT22;73031;44.726;37.760;2024-03-08T12:13:27;11.04;51.99
79010;DHT22;73031;44.726;37.760;2024-03-08T12:14:30;11.09;51.67
79010;DHT22;73031;44.726;37.760;2024-03-08T12:15:33;10.97;52.10
79010;DHT22;73031;44.726;37.760;2024-03-08T12:16:36;10.96;53.04
79010;DHT22;73031;44.726;37.760;2024-03-08T12:17:38;10.95;53.86
79010;DHT22;73031;44.726;37.760;2024-03-08T12:18:51;10.83;53.10
79010;DHT22;73031;44.726;37.760;2024-03-08T12:19:53;10.69;53.50
79010;DHT22;73031;44.726;37.760;2024-03-08T12:21:09;10.58;53.76
79010;DHT22;73031;44.726;37.760;2024-03-08T12:22:11;10.68;53.68
79010;DHT22;73031;44.726;37.760;2024-03-08T12:23:15;10.68;53.16
79010;DHT22;73031;44.726;37.760;2024-03-08T12:24:17;10.64;52.98
79010;DHT22;73031;44.726;37.760;2024-03-08T12:25:25;10.52;53.23
79010;DHT22;73031;44.726;37.760;2024-03-08T12:26:27;10.49;53.20
79010;DHT22;73031;44.726;37.760;2024-03-08T12:27:28;10.51;53.23
79010;DHT22;73031;44.726;37.760;2024-03-08T12:28:30;10.40;53.04
79010;DHT22;73031;44.726;37.760;2024-03-08T12:29:31;10.25;53.63
79010;DHT22;73031;44.726;37.760;2024-03-08T12:30:32;10.25;53.89
79010;DHT22;73031;44.726;37.760;2024-03-08T12:31:34;10.30;54.82
79010;DHT22;73031;44.726;37.760;2024-03-08T12:32:38;10.30;54.15
79010;DHT22;73031;44.726;37.760;2024-03-08T12:34:53;10.23;54.61
79010;DHT22;73031;44.726;37.760;2024-03-08T12:35:55;10.18;54.18
79010;DHT22;73031;44.726;37.760;2024-03-08T12:36:56;10.09;54.32
79010;DHT22;73031;44.726;37.760;2024-03-08T12:37:59;9.96;54.82
79010;DHT22;73031;44.726;37.760;2024-03-08T12:39:01;9.95;55.04
79010;DHT22;73031;44.726;37.760;2024-03-08T12:40:07;9.96;55.17
79010;DHT22;73031;44.726;37.760;2024-03-08T12:41:09;9.93;54.82
79010;DHT22;73031;44.726;37.760;2024-03-08T12:42:10;9.89;55.08
79010;DHT22;73031;44.726;37.760;2024-03-08T12:43:12;9.83;54.79
79010;DHT22;73031;44.726;37.760;2024-03-08T12:44:16;9.50;55.57
79010;DHT22;73031;44.726;37.760;2024-03-08T12:45:18;9.44;55.92
79010;DHT22;73031;44.726;37.760;2024-03-08T12:46:20;9.48;56.04
79010;DHT22;73031;44.726;37.760;2024-03-08T12:47:22;9.52;55.71
79010;DHT22;73031;44.726;37.760;2024-03-08T12:48:24;9.54;56.18
79010;DHT22;73031;44.726;37.760;2024-03-08T12:49:25;9.50;55.68
79010;DHT22;73031;44.726;37.760;2024-03-08T12:50:28;9.45;55.73
79010;DHT22;73031;44.726;37.760;2024-03-08T12:51:31;9.42;55.90
79010;DHT22;73031;44.726;37.760;2024-03-08T15:48:28;6.12;67.30
79010;DHT22;73031;44.726;37.760;2024-03-08T15:49:32;6.05;67.41
79010;DHT22;73031;44.726;37.760;2024-03-08T15:50:34;6.01;67.64
79010;DHT22;73031;44.726;37.760;2024-03-08T15:51:35;6.01;67.97
79010;DHT22;73031;44.726;37.760;2024-03-08T15:52:37;6.03;67.93
79010;DHT22;73031;44.726;37.760;2024-03-08T15:53:41;6.03;67.71
79010;DHT22;73031;44.726;37.760;2024-03-08T15:54:42;6.01;67.95
79010;DHT22;73031;44.726;37.760;2024-03-08T15:55:44;6.03;68.46
79010;DHT22;73031;44.726;37.760;2024-03-08T15:56:47;6.05;67.85
79010;DHT22;73031;44.726;37.760;2024-03-08T15:57:49;6.02;68.42
79010;DHT22;73031;44.726;37.760;2024-03-08T15:58:51;6.02;68.84
79010;DHT22;73031;44.726;37.760;2024-03-08T15:59:52;6.06;68.89
79010;DHT22;73031;44.726;37.760;2024-03-08T16:00:53;6.07;68.22
79010;DHT22;73031;44.726;37.760;2024-03-08T16:01:56;6.06;68.07
79010;DHT22;73031;44.726;37.760;2024-03-08T16:03:02;6.03;67.90
79010;DHT22;73031;44.726;37.760;2024-03-08T16:04:07;6.01;68.20
79010;DHT22;73031;44.726;37.760;2024-03-08T16:05:08;5.99;67.92
79010;DHT22;73031;44.726;37.760;2024-03-08T16:06:12;5.96;68.04
79010;DHT22;73031;44.726;37.760;2024-03-08T16:07:13;5.98;68.24
79010;DHT22;73031;44.726;37.760;2024-03-08T16:08:16;5.96;68.06
79010;DHT22;73031;44.726;37.760;2024-03-08T16:09:18;5.92;68.41
79010;DHT22;73031;44.726;37.760;2024-03-08T16:10:21;5.88;68.30
79010;DHT22;73031;44.726;37.760;2024-03-08T16:11:25;5.88;68.32
79010;DHT22;73031;44.726;37.760;2024-03-08T16:12:27;5.86;68.40
79010;DHT22;73031;44.726;37.760;2024-03-08T16:13:29;5.91;68.33
79010;DHT22;73031;44.726;37.760;2024-03-08T16:14:30;5.89;69.86
79010;DHT22;73031;44.726;37.760;2024-03-08T16:15:31;5.88;68.56
79010;DHT22;73031;44.726;37.760;2024-03-08T16:16:33;5.88;68.57
79010;DHT22;73031;44.726;37.760;2024-03-08T16:17:34;5.86;68.72
79010;DHT22;73031;44.726;37.760;2024-03-08T16:18:35;5.88;68.81
79010;DHT22;73031;44.726;37.760;2024-03-08T16:19:38;5.84;68.80
79010;DHT22;73031;44.726;37.760;2024-03-08T16:20:42;5.81;69.08
79010;DHT22;73031;44.726;37.760;2024-03-08T16:21:48;5.82;69.51
79010;DHT22;73031;44.726;37.760;2024-03-08T16:22:49;5.79;69.61
79010;DHT22;73031;44.726;37.760;2024-03-08T16:23:54;5.74;69.06
79010;DHT22;73031;44.726;37.760;2024-03-08T16:24:55;5.77;69.46
79010;DHT22;73031;44.726;37.760;2024-03-08T16:25:57;5.78;69.46
79010;DHT22;73031;44.726;37.760;2024-03-08T16:26:58;5.79;69.40
79010;DHT22;73031;44.726;37.760;2024-03-08T16:27:59;5.86;70.05